sensor_id;sensor_type;location;lat;lon;timestamp;P1;durP1;ratioP1;P2;durP2;ratioP2
68315;SDS011;55508;54.368;18.406;2023-02-28T00:00:33;170.95;;;74.97;;
68315;SDS011;55508;54.368;18.406;2023-02-28T00:03:01;181.32;;;74.05;;
68315;SDS011;55508;54.368;18.406;2023-02-28T00:05:28;172.82;;;74.93;;
68315;SDS011;55508;54.368;18.406;2023-02-28T00:07:55;164.15;;;72.20;;
68315;SDS011;55508;54.368;18.406;2023-02-28T00:10:24;168.55;;;72.18;;
68315;SDS011;55508;54.368;18.406;2023-02-28T00:12:53;174.57;;;73.18;;
68315;SDS011;55508;54.368;18.406;2023-02-28T00:15:23;159.88;;;69.70;;
68315;SDS011;55508;54.368;18.406;2023-02-28T00:17:50;177.38;;;76.60;;
68315;SDS011;55508;54.368;18.406;2023-02-28T00:20:17;165.73;;;72.57;;
68315;SDS011;55508;54.368;18.406;2023-02-28T00:22:46;170.95;;;71.55;;
68315;SDS011;55508;54.368;18.406;2023-02-28T00:25:15;165.00;;;70.82;;
68315;SDS011;55508;54.368;18.406;2023-02-28T00:27:44;168.57;;;73.50;;
68315;SDS011;55508;54.368;18.406;2023-02-28T00:30:12;158.88;;;68.20;;
68315;SDS011;55508;54.368;18.406;2023-02-28T00:32:41;162.93;;;69.25;;
68315;SDS011;55508;54.368;18.406;2023-02-28T00:35:08;173.30;;;73.22;;
68315;SDS011;55508;54.368;18.406;2023-02-28T00:37:36;159.18;;;69.35;;
68315;SDS011;55508;54.368;18.406;2023-02-28T00:40:04;160.00;;;67.75;;
68315;SDS011;55508;54.368;18.406;2023-02-28T00:42:33;169.20;;;73.00;;
68315;SDS011;55508;54.368;18.406;2023-02-28T00:45:00;162.85;;;69.60;;
68315;SDS011;55508;54.368;18.406;2023-02-28T00:47:27;169.02;;;72.20;;
68315;SDS011;55508;54.368;18.406;2023-02-28T00:49:54;182.77;;;75.20;;
68315;SDS011;55508;54.368;18.406;2023-02-28T00:52:21;171.60;;;74.00;;
68315;SDS011;55508;54.368;18.406;2023-02-28T00:54:48;180.52;;;75.95;;
68315;SDS011;55508;54.368;18.406;2023-02-28T00:57:15;176.07;;;75.75;;
68315;SDS011;55508;54.368;18.406;2023-02-28T00:59:42;171.10;;;74.80;;
68315;SDS011;55508;54.368;18.406;2023-02-28T01:02:09;172.32;;;72.63;;
68315;SDS011;55508;54.368;18.406;2023-02-28T01:04:36;174.32;;;76.22;;
68315;SDS011;55508;54.368;18.406;2023-02-28T01:07:03;164.35;;;70.75;;
68315;SDS011;55508;54.368;18.406;2023-02-28T01:09:30;160.73;;;69.18;;
68315;SDS011;55508;54.368;18.406;2023-02-28T01:11:57;165.25;;;69.72;;
68315;SDS011;55508;54.368;18.406;2023-02-28T01:14:24;158.55;;;65.00;;
68315;SDS011;55508;54.368;18.406;2023-02-28T01:16:51;164.10;;;65.40;;
68315;SDS011;55508;54.368;18.406;2023-02-28T01:19:18;140.43;;;58.33;;
68315;SDS011;55508;54.368;18.406;2023-02-28T01:21:45;141.05;;;60.95;;
68315;SDS011;55508;54.368;18.406;2023-02-28T01:24:12;135.63;;;58.75;;
68315;SDS011;55508;54.368;18.406;2023-02-28T01:26:39;136.90;;;60.40;;
68315;SDS011;55508;54.368;18.406;2023-02-28T01:29:06;123.95;;;54.22;;
68315;SDS011;55508;54.368;18.406;2023-02-28T01:31:33;129.35;;;55.70;;
68315;SDS011;55508;54.368;18.406;2023-02-28T01:34:00;130.25;;;54.50;;
68315;SDS011;55508;54.368;18.406;2023-02-28T01:36:28;154.02;;;60.08;;
68315;SDS011;55508;54.368;18.406;2023-02-28T01:38:55;163.45;;;65.90;;
68315;SDS011;55508;54.368;18.406;2023-02-28T01:41:24;138.80;;;60.55;;
68315;SDS011;55508;54.368;18.406;2023-02-28T01:43:55;148.93;;;63.42;;
68315;SDS011;55508;54.368;18.406;2023-02-28T01:46:25;142.13;;;60.08;;
68315;SDS011;55508;54.368;18.406;2023-02-28T01:48:58;144.55;;;61.58;;
68315;SDS011;55508;54.368;18.406;2023-02-28T01:51:43;137.77;;;58.42;;
68315;SDS011;55508;54.368;18.406;2023-02-28T01:54:21;130.77;;;58.05;;
68315;SDS011;55508;54.368;18.406;2023-02-28T01:56:52;126.53;;;54.20;;
68315;SDS011;55508;54.368;18.406;2023-02-28T01:59:23;122.03;;;52.38;;
68315;SDS011;55508;54.368;18.406;2023-02-28T02:01:54;127.68;;;54.30;;
68315;SDS011;55508;54.368;18.406;2023-02-28T02:04:22;126.32;;;53.53;;
68315;SDS011;55508;54.368;18.406;2023-02-28T02:06:50;123.25;;;54.58;;
68315;SDS011;55508;54.368;18.406;2023-02-28T02:09:17;138.73;;;58.33;;
68315;SDS011;55508;54.368;18.406;2023-02-28T02:11:44;144.82;;;63.65;;
68315;SDS011;55508;54.368;18.406;2023-02-28T02:17:01;126.13;;;54.10;;
68315;SDS011;55508;54.368;18.406;2023-02-28T02:19:46;168.50;;;68.28;;
68315;SDS011;55508;54.368;18.406;2023-02-28T02:22:43;134.73;;;59.08;;
68315;SDS011;55508;54.368;18.406;2023-02-28T02:25:49;187.52;;;77.05;;
68315;SDS011;55508;54.368;18.406;2023-02-28T02:29:02;127.30;;;55.33;;
68315;SDS011;55508;54.368;18.406;2023-02-28T02:40:50;125.03;;;55.28;;
68315;SDS011;55508;54.368;18.406;2023-02-28T02:43:28;118.50;;;52.03;;
68315;SDS011;55508;54.368;18.406;2023-02-28T02:46:00;106.15;;;48.38;;
68315;SDS011;55508;54.368;18.406;2023-02-28T02:48:32;151.70;;;64.95;;
68315;SDS011;55508;54.368;18.406;2023-02-28T02:51:01;145.82;;;62.63;;
68315;SDS011;55508;54.368;18.406;2023-02-28T02:53:35;110.70;;;50.45;;
68315;SDS011;55508;54.368;18.406;2023-02-28T02:56:06;140.07;;;59.03;;
68315;SDS011;55508;54.368;18.406;2023-02-28T02:58:35;133.45;;;56.55;;
68315;SDS011;55508;54.368;18.406;2023-02-28T03:01:10;141.13;;;58.15;;
68315;SDS011;55508;54.368;18.406;2023-02-28T03:03:40;129.65;;;55.08;;
68315;SDS011;55508;54.368;18.406;2023-02-28T03:06:08;130.90;;;56.10;;
68315;SDS011;55508;54.368;18.406;2023-02-28T03:08:36;129.30;;;53.80;;
68315;SDS011;55508;54.368;18.406;2023-02-28T03:11:06;130.77;;;55.90;;
68315;SDS011;55508;54.368;18.406;2023-02-28T03:13:47;121.28;;;53.83;;
68315;SDS011;55508;54.368;18.406;2023-02-28T03:25:52;117.68;;;49.30;;
68315;SDS011;55508;54.368;18.406;2023-02-28T03:28:51;113.47;;;47.70;;
68315;SDS011;55508;54.368;18.406;2023-02-28T03:31:30;110.68;;;46.17;;
68315;SDS011;55508;54.368;18.406;2023-02-28T03:34:10;113.85;;;49.00;;
68315;SDS011;55508;54.368;18.406;2023-02-28T03:36:45;102.55;;;46.40;;
68315;SDS011;55508;54.368;18.406;2023-02-28T03:39:19;87.65;;;39.97;;
68315;SDS011;55508;54.368;18.406;2023-02-28T03:41:52;93.07;;;43.08;;
68315;SDS011;55508;54.368;18.406;2023-02-28T03:44:24;93.07;;;39.92;;
68315;SDS011;55508;54.368;18.406;2023-02-28T03:46:59;93.75;;;39.78;;
68315;SDS011;55508;54.368;18.406;2023-02-28T03:49:39;89.90;;;39.60;;
68315;SDS011;55508;54.368;18.406;2023-02-28T03:52:10;92.85;;;38.50;;
68315;SDS011;55508;54.368;18.406;2023-02-28T03:54:39;89.80;;;40.92;;
68315;SDS011;55508;54.368;18.406;2023-02-28T03:57:15;89.93;;;40.90;;
68315;SDS011;55508;54.368;18.406;2023-02-28T03:59:47;91.10;;;40.95;;
68315;SDS011;55508;54.368;18.406;2023-02-28T04:02:21;82.80;;;38.97;;
68315;SDS011;55508;54.368;18.406;2023-02-28T04:04:48;85.15;;;36.75;;
68315;SDS011;55508;54.368;18.406;2023-02-28T04:07:15;80.30;;;35.45;;
68315;SDS011;55508;54.368;18.406;2023-02-28T04:09:43;76.45;;;35.10;;
68315;SDS011;55508;54.368;18.406;2023-02-28T04:12:10;79.40;;;35.88;;
68315;SDS011;55508;54.368;18.406;2023-02-28T04:14:37;80.32;;;35.92;;
68315;SDS011;55508;54.368;18.406;2023-02-28T04:17:04;83.57;;;38.13;;
68315;SDS011;55508;54.368;18.406;2023-02-28T04:19:31;73.60;;;36.33;;
68315;SDS011;55508;54.368;18.406;2023-02-28T04:21:58;76.97;;;33.55;;
68315;SDS011;55508;54.368;18.406;2023-02-28T04:24:26;80.78;;;33.80;;
68315;SDS011;55508;54.368;18.406;2023-02-28T04:26:54;83.18;;;34.97;;
68315;SDS011;55508;54.368;18.406;2023-02-28T04:29:24;78.15;;;35.03;;
68315;SDS011;55508;54.368;18.406;2023-02-28T04:31:52;77.88;;;35.25;;
68315;SDS011;55508;54.368;18.406;2023-02-28T04:34:20;69.38;;;32.90;;
68315;SDS011;55508;54.368;18.406;2023-02-28T04:36:47;73.28;;;33.28;;
68315;SDS011;55508;54.368;18.406;2023-02-28T04:39:38;116.75;;;51.67;;
68315;SDS011;55508;54.368;18.406;2023-02-28T04:42:05;201.60;;;83.50;;
68315;SDS011;55508;54.368;18.406;2023-02-28T04:44:32;277.50;;;103.38;;
68315;SDS011;55508;54.368;18.406;2023-02-28T04:46:59;268.35;;;95.15;;
68315;SDS011;55508;54.368;18.406;2023-02-28T04:49:26;335.65;;;109.85;;
68315;SDS011;55508;54.368;18.406;2023-02-28T04:51:53;395.08;;;114.97;;
68315;SDS011;55508;54.368;18.406;2023-02-28T04:54:20;747.00;;;229.90;;
68315;SDS011;55508;54.368;18.406;2023-02-28T04:56:47;246.02;;;75.85;;
68315;SDS011;55508;54.368;18.406;2023-02-28T04:59:16;148.75;;;52.67;;
68315;SDS011;55508;54.368;18.406;2023-02-28T05:01:47;186.55;;;60.72;;
68315;SDS011;55508;54.368;18.406;2023-02-28T05:04:15;185.75;;;62.13;;
68315;SDS011;55508;54.368;18.406;2023-02-28T05:06:42;150.95;;;56.28;;
68315;SDS011;55508;54.368;18.406;2023-02-28T05:09:09;188.88;;;70.43;;
68315;SDS011;55508;54.368;18.406;2023-02-28T05:11:40;143.32;;;53.70;;
68315;SDS011;55508;54.368;18.406;2023-02-28T05:14:09;122.68;;;50.60;;
68315;SDS011;55508;54.368;18.406;2023-02-28T05:19:05;142.15;;;51.97;;
68315;SDS011;55508;54.368;18.406;2023-02-28T05:21:36;145.68;;;54.05;;
68315;SDS011;55508;54.368;18.406;2023-02-28T05:24:06;109.68;;;45.60;;
68315;SDS011;55508;54.368;18.406;2023-02-28T05:26:37;101.82;;;43.10;;
68315;SDS011;55508;54.368;18.406;2023-02-28T05:29:06;81.50;;;35.10;;
68315;SDS011;55508;54.368;18.406;2023-02-28T05:31:33;76.07;;;33.17;;
68315;SDS011;55508;54.368;18.406;2023-02-28T05:34:00;82.60;;;34.60;;
68315;SDS011;55508;54.368;18.406;2023-02-28T05:36:27;109.00;;;42.08;;
68315;SDS011;55508;54.368;18.406;2023-02-28T05:38:54;121.15;;;44.20;;
68315;SDS011;55508;54.368;18.406;2023-02-28T05:41:21;109.90;;;44.47;;
68315;SDS011;55508;54.368;18.406;2023-02-28T05:43:48;108.65;;;42.92;;
68315;SDS011;55508;54.368;18.406;2023-02-28T05:46:15;92.45;;;38.55;;
68315;SDS011;55508;54.368;18.406;2023-02-28T05:48:42;89.72;;;37.67;;
68315;SDS011;55508;54.368;18.406;2023-02-28T05:51:13;88.40;;;35.55;;
68315;SDS011;55508;54.368;18.406;2023-02-28T05:53:40;83.13;;;35.60;;
68315;SDS011;55508;54.368;18.406;2023-02-28T05:56:06;82.30;;;37.78;;
68315;SDS011;55508;54.368;18.406;2023-02-28T05:58:33;87.22;;;38.28;;
68315;SDS011;55508;54.368;18.406;2023-02-28T06:01:18;97.45;;;40.53;;
68315;SDS011;55508;54.368;18.406;2023-02-28T06:03:52;109.20;;;45.90;;
68315;SDS011;55508;54.368;18.406;2023-02-28T06:06:19;137.48;;;56.47;;
68315;SDS011;55508;54.368;18.406;2023-02-28T06:08:46;117.35;;;48.88;;
68315;SDS011;55508;54.368;18.406;2023-02-28T06:11:13;110.80;;;45.70;;
68315;SDS011;55508;54.368;18.406;2023-02-28T06:13:40;105.00;;;44.45;;
68315;SDS011;55508;54.368;18.406;2023-02-28T06:16:09;101.28;;;43.40;;
68315;SDS011;55508;54.368;18.406;2023-02-28T06:18:37;108.03;;;44.90;;
68315;SDS011;55508;54.368;18.406;2023-02-28T06:21:04;96.78;;;42.88;;
68315;SDS011;55508;54.368;18.406;2023-02-28T06:23:31;113.00;;;48.45;;
68315;SDS011;55508;54.368;18.406;2023-02-28T06:25:58;113.90;;;49.08;;
68315;SDS011;55508;54.368;18.406;2023-02-28T06:28:25;96.57;;;43.20;;
68315;SDS011;55508;54.368;18.406;2023-02-28T06:30:52;94.63;;;40.35;;
68315;SDS011;55508;54.368;18.406;2023-02-28T06:33:19;89.32;;;42.47;;
68315;SDS011;55508;54.368;18.406;2023-02-28T06:35:47;91.05;;;42.85;;
68315;SDS011;55508;54.368;18.406;2023-02-28T06:38:16;112.75;;;46.83;;
68315;SDS011;55508;54.368;18.406;2023-02-28T06:40:44;94.18;;;44.58;;
68315;SDS011;55508;54.368;18.406;2023-02-28T06:43:11;86.07;;;39.03;;
68315;SDS011;55508;54.368;18.406;2023-02-28T06:45:43;85.28;;;37.05;;
68315;SDS011;55508;54.368;18.406;2023-02-28T06:48:10;72.38;;;33.00;;
68315;SDS011;55508;54.368;18.406;2023-02-28T06:50:37;61.88;;;30.15;;
68315;SDS011;55508;54.368;18.406;2023-02-28T06:53:04;48.53;;;25.55;;
68315;SDS011;55508;54.368;18.406;2023-02-28T06:55:31;52.97;;;25.42;;
68315;SDS011;55508;54.368;18.406;2023-02-28T06:57:58;57.03;;;25.67;;
68315;SDS011;55508;54.368;18.406;2023-02-28T07:00:25;50.35;;;24.98;;
68315;SDS011;55508;54.368;18.406;2023-02-28T07:02:52;48.50;;;26.00;;
68315;SDS011;55508;54.368;18.406;2023-02-28T07:05:21;47.60;;;26.85;;
68315;SDS011;55508;54.368;18.406;2023-02-28T07:07:48;49.78;;;26.15;;
68315;SDS011;55508;54.368;18.406;2023-02-28T07:10:15;50.05;;;27.55;;
68315;SDS011;55508;54.368;18.406;2023-02-28T07:12:45;53.17;;;26.92;;
68315;SDS011;55508;54.368;18.406;2023-02-28T07:15:12;83.15;;;35.88;;
68315;SDS011;55508;54.368;18.406;2023-02-28T07:17:39;86.05;;;39.17;;
68315;SDS011;55508;54.368;18.406;2023-02-28T07:20:07;58.55;;;28.92;;
68315;SDS011;55508;54.368;18.406;2023-02-28T07:22:34;58.45;;;30.05;;
68315;SDS011;55508;54.368;18.406;2023-02-28T07:25:01;60.75;;;30.42;;
68315;SDS011;55508;54.368;18.406;2023-02-28T07:27:29;62.95;;;30.58;;
68315;SDS011;55508;54.368;18.406;2023-02-28T07:29:56;61.60;;;33.20;;
68315;SDS011;55508;54.368;18.406;2023-02-28T07:32:22;59.20;;;30.05;;
68315;SDS011;55508;54.368;18.406;2023-02-28T07:34:50;65.97;;;32.08;;
68315;SDS011;55508;54.368;18.406;2023-02-28T07:37:17;69.05;;;34.88;;
68315;SDS011;55508;54.368;18.406;2023-02-28T07:39:44;70.38;;;36.70;;
68315;SDS011;55508;54.368;18.406;2023-02-28T07:42:11;62.33;;;32.78;;
68315;SDS011;55508;54.368;18.406;2023-02-28T07:44:39;55.28;;;29.33;;
68315;SDS011;55508;54.368;18.406;2023-02-28T07:47:10;68.00;;;35.05;;
68315;SDS011;55508;54.368;18.406;2023-02-28T07:49:37;83.97;;;46.80;;
68315;SDS011;55508;54.368;18.406;2023-02-28T07:52:05;81.10;;;45.10;;
68315;SDS011;55508;54.368;18.406;2023-02-28T07:54:33;81.30;;;45.58;;
68315;SDS011;55508;54.368;18.406;2023-02-28T07:57:00;100.82;;;58.20;;
68315;SDS011;55508;54.368;18.406;2023-02-28T07:59:27;83.32;;;45.20;;
68315;SDS011;55508;54.368;18.406;2023-02-28T08:01:57;76.15;;;42.35;;
68315;SDS011;55508;54.368;18.406;2023-02-28T08:04:25;67.82;;;35.97;;
68315;SDS011;55508;54.368;18.406;2023-02-28T08:06:53;71.30;;;34.95;;
68315;SDS011;55508;54.368;18.406;2023-02-28T08:09:20;68.05;;;38.45;;
68315;SDS011;55508;54.368;18.406;2023-02-28T08:11:47;86.78;;;44.20;;
68315;SDS011;55508;54.368;18.406;2023-02-28T08:14:14;80.75;;;42.63;;
68315;SDS011;55508;54.368;18.406;2023-02-28T08:16:41;86.75;;;41.53;;
68315;SDS011;55508;54.368;18.406;2023-02-28T08:19:09;94.00;;;46.50;;
68315;SDS011;55508;54.368;18.406;2023-02-28T08:21:36;95.78;;;45.90;;
68315;SDS011;55508;54.368;18.406;2023-02-28T08:24:03;96.68;;;46.08;;
68315;SDS011;55508;54.368;18.406;2023-02-28T08:26:31;94.55;;;46.90;;
68315;SDS011;55508;54.368;18.406;2023-02-28T08:28:58;99.65;;;48.55;;
68315;SDS011;55508;54.368;18.406;2023-02-28T08:31:27;104.60;;;53.55;;
68315;SDS011;55508;54.368;18.406;2023-02-28T08:33:55;95.82;;;48.67;;
68315;SDS011;55508;54.368;18.406;2023-02-28T08:36:25;98.65;;;46.33;;
68315;SDS011;55508;54.368;18.406;2023-02-28T08:38:56;92.18;;;45.10;;
68315;SDS011;55508;54.368;18.406;2023-02-28T08:41:23;102.00;;;47.17;;
68315;SDS011;55508;54.368;18.406;2023-02-28T08:43:50;96.55;;;43.60;;
68315;SDS011;55508;54.368;18.406;2023-02-28T08:46:18;88.53;;;44.03;;
68315;SDS011;55508;54.368;18.406;2023-02-28T08:48:45;79.22;;;39.97;;
68315;SDS011;55508;54.368;18.406;2023-02-28T08:51:14;86.35;;;42.33;;
68315;SDS011;55508;54.368;18.406;2023-02-28T08:53:48;53.03;;;27.95;;
68315;SDS011;55508;54.368;18.406;2023-02-28T08:56:16;56.05;;;26.92;;
68315;SDS011;55508;54.368;18.406;2023-02-28T08:58:43;47.30;;;24.48;;
68315;SDS011;55508;54.368;18.406;2023-02-28T09:01:16;40.78;;;22.60;;
68315;SDS011;55508;54.368;18.406;2023-02-28T09:03:46;41.63;;;23.15;;
68315;SDS011;55508;54.368;18.406;2023-02-28T09:06:14;47.75;;;25.08;;
68315;SDS011;55508;54.368;18.406;2023-02-28T09:08:42;40.97;;;22.10;;
68315;SDS011;55508;54.368;18.406;2023-02-28T09:11:09;39.08;;;22.75;;
68315;SDS011;55508;54.368;18.406;2023-02-28T09:13:38;33.70;;;17.42;;
68315;SDS011;55508;54.368;18.406;2023-02-28T09:16:06;27.65;;;13.23;;
68315;SDS011;55508;54.368;18.406;2023-02-28T09:18:35;21.05;;;12.13;;
68315;SDS011;55508;54.368;18.406;2023-02-28T09:21:04;20.50;;;11.52;;
68315;SDS011;55508;54.368;18.406;2023-02-28T09:23:33;19.23;;;10.43;;
68315;SDS011;55508;54.368;18.406;2023-02-28T09:26:00;21.73;;;8.63;;
68315;SDS011;55508;54.368;18.406;2023-02-28T09:28:27;14.10;;;7.18;;
68315;SDS011;55508;54.368;18.406;2023-02-28T09:30:54;17.20;;;8.05;;
68315;SDS011;55508;54.368;18.406;2023-02-28T09:33:22;17.45;;;9.15;;
68315;SDS011;55508;54.368;18.406;2023-02-28T09:35:50;13.48;;;9.02;;
68315;SDS011;55508;54.368;18.406;2023-02-28T09:38:17;17.13;;;10.20;;
68315;SDS011;55508;54.368;18.406;2023-02-28T09:40:50;15.23;;;9.00;;
68315;SDS011;55508;54.368;18.406;2023-02-28T09:43:20;16.70;;;9.48;;
68315;SDS011;55508;54.368;18.406;2023-02-28T09:45:51;16.77;;;8.68;;
68315;SDS011;55508;54.368;18.406;2023-02-28T09:48:26;15.05;;;9.88;;
68315;SDS011;55508;54.368;18.406;2023-02-28T09:51:12;12.10;;;8.50;;
68315;SDS011;55508;54.368;18.406;2023-02-28T09:53:50;14.02;;;9.68;;
68315;SDS011;55508;54.368;18.406;2023-02-28T09:56:31;14.02;;;8.63;;
68315;SDS011;55508;54.368;18.406;2023-02-28T09:59:26;15.95;;;10.27;;
68315;SDS011;55508;54.368;18.406;2023-02-28T10:05:18;20.20;;;10.48;;
68315;SDS011;55508;54.368;18.406;2023-02-28T10:07:50;11.93;;;8.00;;
68315;SDS011;55508;54.368;18.406;2023-02-28T10:10:44;14.15;;;8.93;;
68315;SDS011;55508;54.368;18.406;2023-02-28T10:13:15;21.05;;;9.98;;
68315;SDS011;55508;54.368;18.406;2023-02-28T10:15:47;15.02;;;7.88;;
68315;SDS011;55508;54.368;18.406;2023-02-28T10:18:20;11.38;;;7.53;;
68315;SDS011;55508;54.368;18.406;2023-02-28T10:20:49;9.80;;;6.82;;
68315;SDS011;55508;54.368;18.406;2023-02-28T10:23:20;12.30;;;7.28;;
68315;SDS011;55508;54.368;18.406;2023-02-28T10:26:10;13.68;;;6.20;;
68315;SDS011;55508;54.368;18.406;2023-02-28T10:28:39;6.90;;;4.55;;
68315;SDS011;55508;54.368;18.406;2023-02-28T10:31:08;7.63;;;5.22;;
68315;SDS011;55508;54.368;18.406;2023-02-28T10:33:44;9.07;;;4.13;;
68315;SDS011;55508;54.368;18.406;2023-02-28T10:36:13;5.03;;;3.53;;
68315;SDS011;55508;54.368;18.406;2023-02-28T10:38:43;3.58;;;3.22;;
68315;SDS011;55508;54.368;18.406;2023-02-28T10:41:13;9.27;;;5.07;;
68315;SDS011;55508;54.368;18.406;2023-02-28T10:44:11;10.23;;;6.97;;
68315;SDS011;55508;54.368;18.406;2023-02-28T10:46:49;8.43;;;5.38;;
68315;SDS011;55508;54.368;18.406;2023-02-28T10:49:19;12.45;;;5.00;;
68315;SDS011;55508;54.368;18.406;2023-02-28T10:51:55;6.22;;;4.90;;
68315;SDS011;55508;54.368;18.406;2023-02-28T10:54:27;6.00;;;4.10;;
68315;SDS011;55508;54.368;18.406;2023-02-28T10:59:46;6.13;;;4.03;;
68315;SDS011;55508;54.368;18.406;2023-02-28T11:02:28;4.75;;;4.25;;
68315;SDS011;55508;54.368;18.406;2023-02-28T11:05:00;6.68;;;3.85;;
68315;SDS011;55508;54.368;18.406;2023-02-28T11:07:27;3.80;;;2.60;;
68315;SDS011;55508;54.368;18.406;2023-02-28T11:10:06;4.15;;;3.25;;
68315;SDS011;55508;54.368;18.406;2023-02-28T11:12:38;5.53;;;3.05;;
68315;SDS011;55508;54.368;18.406;2023-02-28T11:15:24;4.55;;;3.42;;
68315;SDS011;55508;54.368;18.406;2023-02-28T11:17:57;3.42;;;2.95;;
68315;SDS011;55508;54.368;18.406;2023-02-28T11:20:30;4.78;;;3.30;;
68315;SDS011;55508;54.368;18.406;2023-02-28T11:23:00;3.67;;;3.22;;
68315;SDS011;55508;54.368;18.406;2023-02-28T11:25:30;4.00;;;2.60;;
68315;SDS011;55508;54.368;18.406;2023-02-28T11:28:00;4.20;;;3.17;;
68315;SDS011;55508;54.368;18.406;2023-02-28T11:30:31;4.32;;;2.92;;
68315;SDS011;55508;54.368;18.406;2023-02-28T11:35:57;6.45;;;4.25;;
68315;SDS011;55508;54.368;18.406;2023-02-28T11:38:27;4.18;;;2.95;;
68315;SDS011;55508;54.368;18.406;2023-02-28T11:41:03;3.83;;;3.50;;
68315;SDS011;55508;54.368;18.406;2023-02-28T11:43:39;5.07;;;3.70;;
68315;SDS011;55508;54.368;18.406;2023-02-28T11:49:27;4.25;;;3.85;;
68315;SDS011;55508;54.368;18.406;2023-02-28T11:52:20;6.22;;;3.35;;
68315;SDS011;55508;54.368;18.406;2023-02-28T11:55:01;6.05;;;4.13;;
68315;SDS011;55508;54.368;18.406;2023-02-28T12:00:55;5.18;;;4.03;;
68315;SDS011;55508;54.368;18.406;2023-02-28T12:03:33;3.92;;;3.30;;
68315;SDS011;55508;54.368;18.406;2023-02-28T12:09:23;7.63;;;3.40;;
68315;SDS011;55508;54.368;18.406;2023-02-28T12:21:31;5.35;;;3.80;;
68315;SDS011;55508;54.368;18.406;2023-02-28T12:24:26;3.90;;;2.65;;
68315;SDS011;55508;54.368;18.406;2023-02-28T12:27:07;3.40;;;1.90;;
68315;SDS011;55508;54.368;18.406;2023-02-28T12:29:45;4.68;;;2.42;;
68315;SDS011;55508;54.368;18.406;2023-02-28T12:35:12;4.53;;;3.20;;
68315;SDS011;55508;54.368;18.406;2023-02-28T12:37:55;4.28;;;2.60;;
68315;SDS011;55508;54.368;18.406;2023-02-28T12:40:27;5.80;;;3.85;;
68315;SDS011;55508;54.368;18.406;2023-02-28T12:43:03;5.25;;;3.55;;
68315;SDS011;55508;54.368;18.406;2023-02-28T12:45:38;4.30;;;3.03;;
68315;SDS011;55508;54.368;18.406;2023-02-28T12:48:31;2.97;;;2.40;;
68315;SDS011;55508;54.368;18.406;2023-02-28T12:51:22;2.60;;;2.22;;
68315;SDS011;55508;54.368;18.406;2023-02-28T13:03:16;2.65;;;2.05;;
68315;SDS011;55508;54.368;18.406;2023-02-28T13:09:03;2.88;;;2.42;;
68315;SDS011;55508;54.368;18.406;2023-02-28T13:11:40;4.32;;;2.38;;
68315;SDS011;55508;54.368;18.406;2023-02-28T13:14:35;3.28;;;2.60;;
68315;SDS011;55508;54.368;18.406;2023-02-28T13:17:10;5.00;;;3.25;;
68315;SDS011;55508;54.368;18.406;2023-02-28T13:19:40;4.53;;;3.17;;
68315;SDS011;55508;54.368;18.406;2023-02-28T13:22:16;3.70;;;3.20;;
68315;SDS011;55508;54.368;18.406;2023-02-28T13:24:50;4.72;;;3.33;;
68315;SDS011;55508;54.368;18.406;2023-02-28T13:27:31;4.80;;;3.60;;
68315;SDS011;55508;54.368;18.406;2023-02-28T13:30:00;3.72;;;2.90;;
68315;SDS011;55508;54.368;18.406;2023-02-28T13:32:29;4.75;;;3.28;;
68315;SDS011;55508;54.368;18.406;2023-02-28T13:37:43;7.05;;;3.13;;
68315;SDS011;55508;54.368;18.406;2023-02-28T13:40:28;4.97;;;3.28;;
68315;SDS011;55508;54.368;18.406;2023-02-28T13:42:57;5.70;;;4.70;;
68315;SDS011;55508;54.368;18.406;2023-02-28T13:45:28;6.65;;;4.47;;
68315;SDS011;55508;54.368;18.406;2023-02-28T13:48:00;3.03;;;2.42;;
68315;SDS011;55508;54.368;18.406;2023-02-28T13:50:33;3.97;;;3.50;;
68315;SDS011;55508;54.368;18.406;2023-02-28T13:53:24;3.38;;;2.97;;
68315;SDS011;55508;54.368;18.406;2023-02-28T13:56:07;5.03;;;4.28;;
68315;SDS011;55508;54.368;18.406;2023-02-28T13:59:02;6.75;;;4.50;;
68315;SDS011;55508;54.368;18.406;2023-02-28T14:07:28;9.18;;;4.93;;
68315;SDS011;55508;54.368;18.406;2023-02-28T14:10:03;8.07;;;4.82;;
68315;SDS011;55508;54.368;18.406;2023-02-28T14:15:38;13.65;;;6.22;;
68315;SDS011;55508;54.368;18.406;2023-02-28T14:24:08;9.77;;;4.93;;
68315;SDS011;55508;54.368;18.406;2023-02-28T14:35:57;8.80;;;6.28;;
68315;SDS011;55508;54.368;18.406;2023-02-28T14:38:37;16.42;;;7.45;;
68315;SDS011;55508;54.368;18.406;2023-02-28T14:41:14;10.90;;;7.10;;
68315;SDS011;55508;54.368;18.406;2023-02-28T14:43:54;8.07;;;5.88;;
68315;SDS011;55508;54.368;18.406;2023-02-28T14:46:24;13.25;;;8.35;;
68315;SDS011;55508;54.368;18.406;2023-02-28T14:48:59;20.83;;;9.57;;
68315;SDS011;55508;54.368;18.406;2023-02-28T14:51:27;27.38;;;10.77;;
68315;SDS011;55508;54.368;18.406;2023-02-28T14:53:57;14.10;;;8.63;;
68315;SDS011;55508;54.368;18.406;2023-02-28T14:56:28;21.05;;;10.35;;
68315;SDS011;55508;54.368;18.406;2023-02-28T14:58:59;23.17;;;10.45;;
68315;SDS011;55508;54.368;18.406;2023-02-28T15:01:27;24.88;;;12.35;;
68315;SDS011;55508;54.368;18.406;2023-02-28T15:03:58;25.38;;;12.40;;
68315;SDS011;55508;54.368;18.406;2023-02-28T15:06:28;35.47;;;14.82;;
68315;SDS011;55508;54.368;18.406;2023-02-28T15:11:47;26.25;;;14.27;;
68315;SDS011;55508;54.368;18.406;2023-02-28T15:14:16;22.15;;;11.68;;
68315;SDS011;55508;54.368;18.406;2023-02-28T15:16:46;19.67;;;9.75;;
68315;SDS011;55508;54.368;18.406;2023-02-28T15:19:22;21.73;;;12.13;;
68315;SDS011;55508;54.368;18.406;2023-02-28T15:21:53;15.27;;;10.55;;
68315;SDS011;55508;54.368;18.406;2023-02-28T15:24:31;17.05;;;10.95;;
68315;SDS011;55508;54.368;18.406;2023-02-28T15:27:07;25.40;;;14.43;;
68315;SDS011;55508;54.368;18.406;2023-02-28T15:29:45;26.88;;;14.85;;
68315;SDS011;55508;54.368;18.406;2023-02-28T15:37:56;42.33;;;20.90;;
68315;SDS011;55508;54.368;18.406;2023-02-28T15:40:27;37.67;;;19.17;;
68315;SDS011;55508;54.368;18.406;2023-02-28T15:43:04;32.47;;;17.70;;
68315;SDS011;55508;54.368;18.406;2023-02-28T15:45:45;72.25;;;36.22;;
68315;SDS011;55508;54.368;18.406;2023-02-28T15:48:17;60.38;;;30.05;;
68315;SDS011;55508;54.368;18.406;2023-02-28T15:50:49;46.35;;;24.50;;
68315;SDS011;55508;54.368;18.406;2023-02-28T15:53:22;93.05;;;48.60;;
68315;SDS011;55508;54.368;18.406;2023-02-28T15:55:54;78.35;;;42.10;;
68315;SDS011;55508;54.368;18.406;2023-02-28T15:58:22;73.60;;;37.67;;
68315;SDS011;55508;54.368;18.406;2023-02-28T16:01:01;35.78;;;17.88;;
68315;SDS011;55508;54.368;18.406;2023-02-28T16:03:40;21.43;;;12.73;;
68315;SDS011;55508;54.368;18.406;2023-02-28T16:09:15;23.45;;;13.85;;
68315;SDS011;55508;54.368;18.406;2023-02-28T16:11:49;29.27;;;15.88;;
68315;SDS011;55508;54.368;18.406;2023-02-28T16:14:19;47.00;;;22.63;;
68315;SDS011;55508;54.368;18.406;2023-02-28T16:19:19;34.38;;;15.70;;
68315;SDS011;55508;54.368;18.406;2023-02-28T16:21:48;32.40;;;17.33;;
68315;SDS011;55508;54.368;18.406;2023-02-28T16:24:15;19.35;;;10.48;;